Sd416 Nippon — SKPF — position and weather

sailwx.info

Track history (hours):
 
Tides and Currents Weather Stations Pressure Air Temp Water Temp Dewpoint Dewpoint Depression Visibility Wind Speed Wind Dir Waves Ship Positions

Sd416 Nippon

Last reported at 2015-Jul-06 09:09 UTC. Time now 2015-Jul-07 04:42 UTC.
Position N 58°55' E 011°05'.

Length 17 m; draft 2.5 m.

Type: Fishing. MMSI: 266163000.

Date/timePositionNaut miles runAvg speedWind from/ knotsBaromVisibWave heightAir tempDewpointWater temp
2015-Jul-06 09:09N 58°55' E 011°05'13 2.2
2015-Jul-06 03:18N 58°49' E 010°43'1 1.2
2015-Jul-06 02:28N 58°48' E 010°43'1 1.3
2015-Jul-06 01:24N 58°46' E 010°44'1 1.1
2015-Jul-06 00:33N 58°46' E 010°44'2 2.3
2015-Jul-05 23:33N 58°48' E 010°43'1 1.0
2015-Jul-05 22:33N 58°47' E 010°44'0 0.3
2015-Jul-05 21:33N 58°47' E 010°43'7 7.4
2015-Jul-05 20:33N 58°54' E 010°42'1 0.8
2015-Jul-05 19:33N 58°54' E 010°42'1 1.3
2015-Jul-05 18:33N 58°52' E 010°42'1 1.3
2015-Jul-05 17:30N 58°51' E 010°43'1 1.3
2015-Jul-05 16:33N 58°50' E 010°43'1 1.1
2015-Jul-05 15:32N 58°50' E 010°41'1 1.3
2015-Jul-05 14:33N 58°52' E 010°40'2 1.3
2015-Jul-05 13:24N 58°53' E 010°39'4 5.1
2015-Jul-05 12:33N 58°54' E 010°47'8 7.7
2015-Jul-05 11:33N 58°56' E 011°01'5 4.2
2015-Jul-05 10:27N 58°56' E 011°10'0 0.0
2015-Jul-05 09:33N 58°56' E 011°10'0 0.0
2015-Jul-05 08:31N 58°56' E 011°10'0 0.0
2015-Jul-05 05:26N 58°56' E 011°10'0 0.0
2015-Jul-05 04:28N 58°56' E 011°10'0 0.0
2015-Jul-05 03:33N 58°56' E 011°10'0 0.0
2015-Jul-05 02:29N 58°56' E 011°10'0 0.0
2015-Jul-05 01:32N 58°56' E 011°10'0 0.0
2015-Jul-05 00:33N 58°56' E 011°10'0 0.0
2015-Jul-04 23:33N 58°56' E 011°10'0 0.0
2015-Jul-04 22:30N 58°56' E 011°10'0 0.0
2015-Jul-04 21:23N 58°56' E 011°10'0 0.0
2015-Jul-04 20:08N 58°56' E 011°10'0 0.0
2015-Jul-04 19:30N 58°56' E 011°10'0 0.0
2015-Jul-04 18:33N 58°56' E 011°10'0 0.0
2015-Jul-04 17:33N 58°56' E 011°10'0 0.0
2015-Jul-04 16:33N 58°56' E 011°10'0 0.0
2015-Jul-04 15:33N 58°56' E 011°10'0 0.0
2015-Jul-04 14:33N 58°56' E 011°10'0 0.0
2015-Jul-04 11:10N 58°56' E 011°10'0 0.0
2015-Jul-04 10:31N 58°56' E 011°10'0 0.0
2015-Jul-02 23:33N 58°56' E 011°10'0 0.0
2015-Jul-02 22:33N 58°56' E 011°10'0 0.0
2015-Jul-02 14:31N 58°56' E 011°10'0 0.0
2015-Jul-02 11:29N 58°56' E 011°10'0 0.0
2015-Jul-02 08:29N 58°56' E 011°10'0 0.0
2015-Jul-02 06:27N 58°56' E 011°10'0 0.0
2015-Jul-02 05:33N 58°56' E 011°10'0 0.0
2015-Jul-02 04:33N 58°56' E 011°10'0 0.0
2015-Jul-02 03:33N 58°56' E 011°10'0 0.0
2015-Jul-02 02:33N 58°56' E 011°10'0 0.0
2015-Jul-02 01:33N 58°56' E 011°10'0 0.0
2015-Jul-02 00:33N 58°56' E 011°10'0 0.0
2015-Jul-01 23:33N 58°56' E 011°10'0 0.0
2015-Jul-01 22:33N 58°56' E 011°10'0 0.0
2015-Jul-01 21:33N 58°56' E 011°10'0 0.0
2015-Jul-01 20:32N 58°56' E 011°10'0 0.0
2015-Jul-01 19:33N 58°56' E 011°10'0 0.4
2015-Jul-01 18:32N 58°56' E 011°10'0 0.4
2015-Jul-01 17:33N 58°56' E 011°10'0 0.0
2015-Jul-01 16:32N 58°56' E 011°10'2 2.1
2015-Jul-01 15:33N 58°55' E 011°07'7 7.2
2015-Jul-01 14:33N 58°53' E 010°53'7 7.2
2015-Jul-01 13:33N 58°49' E 010°42'6 5.9
2015-Jul-01 12:33N 58°45' E 010°33'6 6.1
2015-Jul-01 11:33N 58°40' E 010°26'5 5.0
2015-Jul-01 10:33N 58°37' E 010°19'1 0.9
2015-Jul-01 09:33N 58°36' E 010°20'1 1.3
2015-Jul-01 08:33N 58°34' E 010°21'1 1.3
2015-Jul-01 07:27N 58°33' E 010°23'1 1.3
2015-Jul-01 06:33N 58°32' E 010°23'1 1.3
2015-Jul-01 05:33N 58°31' E 010°24'1 1.3
2015-Jul-01 04:33N 58°30' E 010°26'1 1.3
2015-Jul-01 03:31N 58°29' E 010°26'1 1.3
2015-Jul-01 02:33N 58°28' E 010°28'1 1.3
2015-Jul-01 01:33N 58°26' E 010°28'1 1.3
2015-Jul-01 00:33N 58°25' E 010°29'1 1.3
2015-Jun-30 23:33N 58°24' E 010°29'0 0.1
2015-Jun-30 22:32N 58°24' E 010°29'7 7.3
2015-Jun-30 21:33N 58°31' E 010°24'5 4.9
2015-Jun-30 20:30N 58°36' E 010°20'1 0.7
2015-Jun-30 19:33N 58°35' E 010°21'1 1.3
2015-Jun-30 18:32N 58°34' E 010°22'1 1.3
2015-Jun-30 17:32N 58°33' E 010°23'7 0.4
2015-Jun-30 00:33N 58°26' E 010°29'2 1.6
2015-Jun-29 23:28N 58°24' E 010°29'  
2015-Jun-26 10:33N 58°59' E 011°02'8 7.6
2015-Jun-26 09:33N 59°04' E 010°52'  
Track history (hours):
 
Tides and Currents Weather Stations Pressure Air Temp Water Temp Dewpoint Dewpoint Depression Visibility Wind Speed Wind Dir Waves Ship Positions

Sd416 Nippon

Last reported at 2015-Jul-06 09:09 UTC. Time now 2015-Jul-07 04:42 UTC.
Position N 58°55' E 011°05'.

Length 17 m; draft 2.5 m.

Type: Fishing. MMSI: 266163000.

Date/timePositionNaut miles runAvg speedWind from/ knotsBaromVisibWave heightAir tempDewpointWater temp
2015-Jul-06 09:09N 58°55' E 011°05'13 2.2
2015-Jul-06 03:18N 58°49' E 010°43'1 1.2
2015-Jul-06 02:28N 58°48' E 010°43'1 1.3
2015-Jul-06 01:24N 58°46' E 010°44'1 1.1
2015-Jul-06 00:33N 58°46' E 010°44'2 2.3
2015-Jul-05 23:33N 58°48' E 010°43'1 1.0
2015-Jul-05 22:33N 58°47' E 010°44'0 0.3
2015-Jul-05 21:33N 58°47' E 010°43'7 7.4
2015-Jul-05 20:33N 58°54' E 010°42'1 0.8
2015-Jul-05 19:33N 58°54' E 010°42'1 1.3
2015-Jul-05 18:33N 58°52' E 010°42'1 1.3
2015-Jul-05 17:30N 58°51' E 010°43'1 1.3
2015-Jul-05 16:33N 58°50' E 010°43'1 1.1
2015-Jul-05 15:32N 58°50' E 010°41'1 1.3
2015-Jul-05 14:33N 58°52' E 010°40'2 1.3
2015-Jul-05 13:24N 58°53' E 010°39'4 5.1
2015-Jul-05 12:33N 58°54' E 010°47'8 7.7
2015-Jul-05 11:33N 58°56' E 011°01'5 4.2
2015-Jul-05 10:27N 58°56' E 011°10'0 0.0
2015-Jul-05 09:33N 58°56' E 011°10'0 0.0
2015-Jul-05 08:31N 58°56' E 011°10'0 0.0
2015-Jul-05 05:26N 58°56' E 011°10'0 0.0
2015-Jul-05 04:28N 58°56' E 011°10'0 0.0
2015-Jul-05 03:33N 58°56' E 011°10'0 0.0
2015-Jul-05 02:29N 58°56' E 011°10'0 0.0
2015-Jul-05 01:32N 58°56' E 011°10'0 0.0
2015-Jul-05 00:33N 58°56' E 011°10'0 0.0
2015-Jul-04 23:33N 58°56' E 011°10'0 0.0
2015-Jul-04 22:30N 58°56' E 011°10'0 0.0
2015-Jul-04 21:23N 58°56' E 011°10'0 0.0
2015-Jul-04 20:08N 58°56' E 011°10'0 0.0
2015-Jul-04 19:30N 58°56' E 011°10'0 0.0
2015-Jul-04 18:33N 58°56' E 011°10'0 0.0
2015-Jul-04 17:33N 58°56' E 011°10'0 0.0
2015-Jul-04 16:33N 58°56' E 011°10'0 0.0
2015-Jul-04 15:33N 58°56' E 011°10'0 0.0
2015-Jul-04 14:33N 58°56' E 011°10'0 0.0
2015-Jul-04 11:10N 58°56' E 011°10'0 0.0
2015-Jul-04 10:31N 58°56' E 011°10'0 0.0
2015-Jul-02 23:33N 58°56' E 011°10'0 0.0
2015-Jul-02 22:33N 58°56' E 011°10'0 0.0
2015-Jul-02 14:31N 58°56' E 011°10'0 0.0
2015-Jul-02 11:29N 58°56' E 011°10'0 0.0
2015-Jul-02 08:29N 58°56' E 011°10'0 0.0
2015-Jul-02 06:27N 58°56' E 011°10'0 0.0
2015-Jul-02 05:33N 58°56' E 011°10'0 0.0
2015-Jul-02 04:33N 58°56' E 011°10'0 0.0
2015-Jul-02 03:33N 58°56' E 011°10'0 0.0
2015-Jul-02 02:33N 58°56' E 011°10'0 0.0
2015-Jul-02 01:33N 58°56' E 011°10'0 0.0
2015-Jul-02 00:33N 58°56' E 011°10'0 0.0
2015-Jul-01 23:33N 58°56' E 011°10'0 0.0
2015-Jul-01 22:33N 58°56' E 011°10'0 0.0
2015-Jul-01 21:33N 58°56' E 011°10'0 0.0
2015-Jul-01 20:32N 58°56' E 011°10'0 0.0
2015-Jul-01 19:33N 58°56' E 011°10'0 0.4
2015-Jul-01 18:32N 58°56' E 011°10'0 0.4
2015-Jul-01 17:33N 58°56' E 011°10'0 0.0
2015-Jul-01 16:32N 58°56' E 011°10'2 2.1
2015-Jul-01 15:33N 58°55' E 011°07'7 7.2
2015-Jul-01 14:33N 58°53' E 010°53'7 7.2
2015-Jul-01 13:33N 58°49' E 010°42'6 5.9
2015-Jul-01 12:33N 58°45' E 010°33'6 6.1
2015-Jul-01 11:33N 58°40' E 010°26'5 5.0
2015-Jul-01 10:33N 58°37' E 010°19'1 0.9
2015-Jul-01 09:33N 58°36' E 010°20'1 1.3
2015-Jul-01 08:33N 58°34' E 010°21'1 1.3
2015-Jul-01 07:27N 58°33' E 010°23'1 1.3
2015-Jul-01 06:33N 58°32' E 010°23'1 1.3
2015-Jul-01 05:33N 58°31' E 010°24'1 1.3
2015-Jul-01 04:33N 58°30' E 010°26'1 1.3
2015-Jul-01 03:31N 58°29' E 010°26'1 1.3
2015-Jul-01 02:33N 58°28' E 010°28'1 1.3
2015-Jul-01 01:33N 58°26' E 010°28'1 1.3
2015-Jul-01 00:33N 58°25' E 010°29'1 1.3
2015-Jun-30 23:33N 58°24' E 010°29'0 0.1
2015-Jun-30 22:32N 58°24' E 010°29'7 7.3
2015-Jun-30 21:33N 58°31' E 010°24'5 4.9
2015-Jun-30 20:30N 58°36' E 010°20'1 0.7
2015-Jun-30 19:33N 58°35' E 010°21'1 1.3
2015-Jun-30 18:32N 58°34' E 010°22'1 1.3
2015-Jun-30 17:32N 58°33' E 010°23'7 0.4
2015-Jun-30 00:33N 58°26' E 010°29'2 1.6
2015-Jun-29 23:28N 58°24' E 010°29'  
2015-Jun-26 10:33N 58°59' E 011°02'8 7.6
2015-Jun-26 09:33N 59°04' E 010°52'  

Dump ship's entire track history